Clinton, WA

01:08 PDT le 20 octobre 2014 (GMT -0700)
Possession Beach | Change Station
CLOSE
Current Station
Stations météorologiques personnelles
Location: Clinton, WA
Altitude: 24 ft
Stations météo à proximité

Alt. 24 ft 47.92 °N, 122.38 °W | Updated 14 minutes ago

Couvert
Couvert
60.3 ° F
Paraît 60.3 ° F
N
0.0
Vent Variable Vent de SO

Aujourd'hui
Haut(e) -- | Bas -- ° F
--% Risque de précip.
Hier
Haut(e) -- | Bas -- ° F
Precip. -- pouce
7:36 AM 6:11 PM
Lune descendante, 12% visible
Pression 29.71 pouce
Visibilité 10.0 Miles terrestres
Nuages Nuages épars 5000 ft
Couvert 8500 ft
Point de rosée 57 ° F
Humidité 89%
Précipitations 0.00 pouce
Profondeur de la couche neigeuse Non disponible.
UV 0 sur 12
Pollen .70 sur 12
PM2.5 Bon
Flu Activity Sporadic
METAR KPAE 200753Z AUTO 20006KT 10SM SCT050 OVC085 16/12 A2972 RMK AO2 SLP061 T01560117 402110139

More Conditions Fewer Conditions

Pression 29.71 pouce
Visibilité 10.0 Miles terrestres
Nuages Nuages épars 5000 ft
Couvert 8500 ft
Point de rosée 57 ° F
Humidité 89%
Précipitations 0.00 pouce
Profondeur de la couche neigeuse Non disponible.
UV 0 sur 12
Pollen .70 sur 12
PM2.5 Bon
Flu Activity Sporadic
METAR KPAE 200753Z AUTO 20006KT 10SM SCT050 OVC085 16/12 A2972 RMK AO2 SLP061 T01560117 402110139

More Conditions Fewer Conditions

10-Day Weather Forecast

Almanac

Astronomie

Oct. 20, 2014 Lever Coucher
Temps réel 07:36 PDT 18:11 PDT
Crépuscule civil 07:04 PDT 18:43 PDT
Crépuscule nautique 06:28 PDT 19:19 PDT
Crépuscule astronomique 05:52 PDT 19:54 PDT
Lune 04:16 PDT 16:48 PDT
Durée de lumière visible 11h 38m
Longueur du jour
10h 35m
Lune descendante, 12% of the Moon is Illuminated
Aujourd'hui
Lune descendante
Oct 23
Nouveau
Oct 30
Premier quartier
Nov 6
Pleine lune
Nov 14
Dernier quartier

Extrêmes aujourd'hui

State Highs State Lows

Community

WunderPhotos

Upload Photos

1,763,316 Photos téléchargées !

Nearby

Qualité de l'air

  Qualité de l'air Indice de la qualité de l'air Polluant
Hier Bon
PM2.5
Actuel Bon
PM2.5
dimanche Bon
PM2.5
lundi Bon
PM2.5

Épaisseur de neige

Station Depth Altitude
Dungeness 0 in 4100 ft
Alpine Meadows 0 in 3500 ft
Stevens Pass 0 in 4070 ft
Mf Nooksack 5 in 4980 ft
Meadows Pass 0 in 3500 ft

Activité sismique

Ville Distance Mag. Time & Date
No recent earthquake activity has been reported nearby.
Minimum magnitude displayed is 2.5.

Températures des eaux côtières

Lieu Température
Port Townsend, WA 52.0 ° F
Seattle, WA 55.0 ° F
Friday Harbor, WA 51.1 ° F
Tacoma, WA 55.0 ° F

Stations météo à proximité